sensor_id;sensor_type;location;lat;lon;timestamp;temperature;humidity
56478;DHT22;42382;53.210;5.772;2023-03-01T00:01:10;1.10;84.10
56478;DHT22;42382;53.210;5.772;2023-03-01T00:03:36;1.10;84.20
56478;DHT22;42382;53.210;5.772;2023-03-01T00:06:03;1.00;84.10
56478;DHT22;42382;53.210;5.772;2023-03-01T00:08:30;1.00;84.30
56478;DHT22;42382;53.210;5.772;2023-03-01T00:11:13;0.90;84.20
56478;DHT22;42382;53.210;5.772;2023-03-01T00:13:40;0.90;84.40
56478;DHT22;42382;53.210;5.772;2023-03-01T00:16:09;0.90;84.30
56478;DHT22;42382;53.210;5.772;2023-03-01T00:18:34;0.90;84.30
56478;DHT22;42382;53.210;5.772;2023-03-01T00:21:00;0.80;84.40
56478;DHT22;42382;53.210;5.772;2023-03-01T00:23:26;0.80;84.50
56478;DHT22;42382;53.210;5.772;2023-03-01T00:25:52;0.80;84.50
56478;DHT22;42382;53.210;5.772;2023-03-01T00:28:18;0.80;84.60
56478;DHT22;42382;53.210;5.772;2023-03-01T00:33:11;0.70;84.60
56478;DHT22;42382;53.210;5.772;2023-03-01T00:35:37;0.70;84.60
56478;DHT22;42382;53.210;5.772;2023-03-01T00:38:03;0.60;84.70
56478;DHT22;42382;53.210;5.772;2023-03-01T00:40:30;0.60;84.60
56478;DHT22;42382;53.210;5.772;2023-03-01T00:42:56;0.60;84.70
56478;DHT22;42382;53.210;5.772;2023-03-01T00:45:22;0.60;84.70
56478;DHT22;42382;53.210;5.772;2023-03-01T00:47:49;0.60;84.60
56478;DHT22;42382;53.210;5.772;2023-03-01T00:50:15;0.50;84.60
56478;DHT22;42382;53.210;5.772;2023-03-01T00:52:40;0.50;84.60
56478;DHT22;42382;53.210;5.772;2023-03-01T00:55:06;0.50;84.60
56478;DHT22;42382;53.210;5.772;2023-03-01T00:57:32;0.50;84.70
56478;DHT22;42382;53.210;5.772;2023-03-01T00:59:59;0.40;84.60
56478;DHT22;42382;53.210;5.772;2023-03-01T01:02:25;0.40;84.70
56478;DHT22;42382;53.210;5.772;2023-03-01T01:04:51;0.30;84.70
56478;DHT22;42382;53.210;5.772;2023-03-01T01:07:17;0.30;84.80
56478;DHT22;42382;53.210;5.772;2023-03-01T01:09:43;0.20;85.00
56478;DHT22;42382;53.210;5.772;2023-03-01T01:12:09;0.20;85.00
56478;DHT22;42382;53.210;5.772;2023-03-01T01:14:35;0.20;85.10
56478;DHT22;42382;53.210;5.772;2023-03-01T01:17:00;0.10;85.30
56478;DHT22;42382;53.210;5.772;2023-03-01T01:19:26;0.10;85.40
56478;DHT22;42382;53.210;5.772;2023-03-01T01:21:52;0.10;85.60
56478;DHT22;42382;53.210;5.772;2023-03-01T01:24:18;0.10;85.70
56478;DHT22;42382;53.210;5.772;2023-03-01T01:26:43;0.00;85.80
56478;DHT22;42382;53.210;5.772;2023-03-01T01:29:09;0.00;85.90
56478;DHT22;42382;53.210;5.772;2023-03-01T01:31:36;0.00;85.90
56478;DHT22;42382;53.210;5.772;2023-03-01T01:34:03;0.00;85.70
56478;DHT22;42382;53.210;5.772;2023-03-01T01:36:30;0.00;85.90
56478;DHT22;42382;53.210;5.772;2023-03-01T01:38:55;0.00;86.10
56478;DHT22;42382;53.210;5.772;2023-03-01T01:41:22;0.00;86.20
56478;DHT22;42382;53.210;5.772;2023-03-01T01:46:32;0.00;86.10
56478;DHT22;42382;53.210;5.772;2023-03-01T01:49:33;0.00;86.20
56478;DHT22;42382;53.210;5.772;2023-03-01T01:52:05;0.10;86.30
56478;DHT22;42382;53.210;5.772;2023-03-01T01:57:08;0.00;86.20
56478;DHT22;42382;53.210;5.772;2023-03-01T01:59:35;0.00;86.40
56478;DHT22;42382;53.210;5.772;2023-03-01T02:02:03;0.00;86.40
56478;DHT22;42382;53.210;5.772;2023-03-01T02:04:29;0.10;86.40
56478;DHT22;42382;53.210;5.772;2023-03-01T02:07:07;0.00;86.60
56478;DHT22;42382;53.210;5.772;2023-03-01T02:09:35;0.00;86.70
56478;DHT22;42382;53.210;5.772;2023-03-01T02:12:02;0.00;86.80
56478;DHT22;42382;53.210;5.772;2023-03-01T02:14:28;0.00;86.60
56478;DHT22;42382;53.210;5.772;2023-03-01T02:16:53;0.10;86.60
56478;DHT22;42382;53.210;5.772;2023-03-01T02:22:19;0.10;86.80
56478;DHT22;42382;53.210;5.772;2023-03-01T02:30:09;0.00;86.80
56478;DHT22;42382;53.210;5.772;2023-03-01T02:32:39;0.10;86.80
56478;DHT22;42382;53.210;5.772;2023-03-01T02:35:11;0.10;86.80
56478;DHT22;42382;53.210;5.772;2023-03-01T02:37:39;0.10;86.70
56478;DHT22;42382;53.210;5.772;2023-03-01T02:40:09;0.10;86.80
56478;DHT22;42382;53.210;5.772;2023-03-01T02:42:52;0.10;86.90
56478;DHT22;42382;53.210;5.772;2023-03-01T02:45:19;0.10;86.90
56478;DHT22;42382;53.210;5.772;2023-03-01T02:47:45;0.10;87.00
56478;DHT22;42382;53.210;5.772;2023-03-01T02:53:16;0.00;86.90
56478;DHT22;42382;53.210;5.772;2023-03-01T02:55:45;0.00;86.90
56478;DHT22;42382;53.210;5.772;2023-03-01T02:58:11;0.00;87.00
56478;DHT22;42382;53.210;5.772;2023-03-01T03:00:40;0.00;87.10
56478;DHT22;42382;53.210;5.772;2023-03-01T03:03:13;0.00;86.80
56478;DHT22;42382;53.210;5.772;2023-03-01T03:05:39;0.00;86.80
56478;DHT22;42382;53.210;5.772;2023-03-01T03:08:04;0.00;86.80
56478;DHT22;42382;53.210;5.772;2023-03-01T03:10:31;0.00;86.90
56478;DHT22;42382;53.210;5.772;2023-03-01T03:13:00;0.00;86.90
56478;DHT22;42382;53.210;5.772;2023-03-01T03:15:26;0.00;87.00
56478;DHT22;42382;53.210;5.772;2023-03-01T03:17:53;0.00;86.90
56478;DHT22;42382;53.210;5.772;2023-03-01T03:20:19;0.00;86.90
56478;DHT22;42382;53.210;5.772;2023-03-01T03:22:48;0.00;86.80
56478;DHT22;42382;53.210;5.772;2023-03-01T03:25:14;0.00;86.80
56478;DHT22;42382;53.210;5.772;2023-03-01T03:27:40;-3276.70;86.80
56478;DHT22;42382;53.210;5.772;2023-03-01T03:30:07;-3276.70;86.90
56478;DHT22;42382;53.210;5.772;2023-03-01T03:32:35;-3276.70;86.90
56478;DHT22;42382;53.210;5.772;2023-03-01T03:35:01;-3276.70;86.80
56478;DHT22;42382;53.210;5.772;2023-03-01T03:37:26;-3276.70;86.90
56478;DHT22;42382;53.210;5.772;2023-03-01T03:40:11;-3276.70;86.90
56478;DHT22;42382;53.210;5.772;2023-03-01T03:42:40;-3276.60;86.90
56478;DHT22;42382;53.210;5.772;2023-03-01T03:45:06;-3276.50;86.90
56478;DHT22;42382;53.210;5.772;2023-03-01T03:47:32;-3276.50;86.90
56478;DHT22;42382;53.210;5.772;2023-03-01T03:49:57;-3276.50;87.00
56478;DHT22;42382;53.210;5.772;2023-03-01T03:52:23;-3276.40;87.00
56478;DHT22;42382;53.210;5.772;2023-03-01T03:54:48;-3276.40;87.00
56478;DHT22;42382;53.210;5.772;2023-03-01T03:57:14;-3276.30;87.00
56478;DHT22;42382;53.210;5.772;2023-03-01T03:59:39;-3276.30;87.10
56478;DHT22;42382;53.210;5.772;2023-03-01T04:02:05;-3276.30;87.20
56478;DHT22;42382;53.210;5.772;2023-03-01T04:04:30;-3276.30;87.30
56478;DHT22;42382;53.210;5.772;2023-03-01T04:06:56;-3276.30;87.40
56478;DHT22;42382;53.210;5.772;2023-03-01T04:09:21;-3276.30;87.50
56478;DHT22;42382;53.210;5.772;2023-03-01T04:11:47;-3276.40;87.60
56478;DHT22;42382;53.210;5.772;2023-03-01T04:14:12;-3276.40;87.70
56478;DHT22;42382;53.210;5.772;2023-03-01T04:16:38;-3276.40;87.80
56478;DHT22;42382;53.210;5.772;2023-03-01T04:19:03;-3276.40;87.70
56478;DHT22;42382;53.210;5.772;2023-03-01T04:21:32;-3276.50;87.60
56478;DHT22;42382;53.210;5.772;2023-03-01T04:23:57;-3276.50;87.60
56478;DHT22;42382;53.210;5.772;2023-03-01T04:26:23;-3276.50;87.70
56478;DHT22;42382;53.210;5.772;2023-03-01T04:28:48;-3276.50;87.80
56478;DHT22;42382;53.210;5.772;2023-03-01T04:31:16;-3276.50;87.70
56478;DHT22;42382;53.210;5.772;2023-03-01T04:33:44;-3276.60;87.70
56478;DHT22;42382;53.210;5.772;2023-03-01T04:36:11;-3276.50;87.90
56478;DHT22;42382;53.210;5.772;2023-03-01T04:38:37;-3276.60;87.80
56478;DHT22;42382;53.210;5.772;2023-03-01T04:41:04;-3276.60;87.70
56478;DHT22;42382;53.210;5.772;2023-03-01T04:43:29;-3276.60;87.60
56478;DHT22;42382;53.210;5.772;2023-03-01T04:45:59;-3276.50;87.50
56478;DHT22;42382;53.210;5.772;2023-03-01T04:48:25;-3276.50;87.40
56478;DHT22;42382;53.210;5.772;2023-03-01T04:50:50;-3276.60;87.40
56478;DHT22;42382;53.210;5.772;2023-03-01T04:53:16;-3276.60;87.40
56478;DHT22;42382;53.210;5.772;2023-03-01T04:55:42;-3276.50;87.30
56478;DHT22;42382;53.210;5.772;2023-03-01T04:58:07;-3276.50;87.30
56478;DHT22;42382;53.210;5.772;2023-03-01T05:00:33;-3276.60;87.30
56478;DHT22;42382;53.210;5.772;2023-03-01T05:03:01;-3276.50;87.30
56478;DHT22;42382;53.210;5.772;2023-03-01T05:05:31;-3276.50;87.30
56478;DHT22;42382;53.210;5.772;2023-03-01T05:07:57;-3276.50;87.30
56478;DHT22;42382;53.210;5.772;2023-03-01T05:10:24;-3276.50;87.20
56478;DHT22;42382;53.210;5.772;2023-03-01T05:12:50;-3276.50;87.20
56478;DHT22;42382;53.210;5.772;2023-03-01T05:15:17;-3276.50;87.30
56478;DHT22;42382;53.210;5.772;2023-03-01T05:17:43;-3276.60;87.30
56478;DHT22;42382;53.210;5.772;2023-03-01T05:20:09;-3276.50;87.20
56478;DHT22;42382;53.210;5.772;2023-03-01T05:22:35;-3276.50;87.30
56478;DHT22;42382;53.210;5.772;2023-03-01T05:25:01;-3276.50;87.30
56478;DHT22;42382;53.210;5.772;2023-03-01T05:27:27;-3276.50;87.30
56478;DHT22;42382;53.210;5.772;2023-03-01T05:29:52;-3276.50;87.30
56478;DHT22;42382;53.210;5.772;2023-03-01T05:32:18;-3276.50;87.30
56478;DHT22;42382;53.210;5.772;2023-03-01T05:34:43;-3276.50;87.30
56478;DHT22;42382;53.210;5.772;2023-03-01T05:37:11;-3276.50;87.30
56478;DHT22;42382;53.210;5.772;2023-03-01T05:39:37;-3276.50;87.20
56478;DHT22;42382;53.210;5.772;2023-03-01T05:42:03;-3276.40;87.20
56478;DHT22;42382;53.210;5.772;2023-03-01T05:44:28;-3276.40;87.20
56478;DHT22;42382;53.210;5.772;2023-03-01T05:46:54;-3276.40;87.10
56478;DHT22;42382;53.210;5.772;2023-03-01T05:49:20;-3276.30;87.00
56478;DHT22;42382;53.210;5.772;2023-03-01T05:51:49;-3276.30;87.10
56478;DHT22;42382;53.210;5.772;2023-03-01T05:54:15;-3276.20;87.10
56478;DHT22;42382;53.210;5.772;2023-03-01T05:56:40;-3276.10;87.10
56478;DHT22;42382;53.210;5.772;2023-03-01T05:59:06;-3276.10;87.10
56478;DHT22;42382;53.210;5.772;2023-03-01T06:01:32;-3276.10;87.10
56478;DHT22;42382;53.210;5.772;2023-03-01T06:03:57;-3276.00;87.10
56478;DHT22;42382;53.210;5.772;2023-03-01T06:06:23;-3275.90;87.20
56478;DHT22;42382;53.210;5.772;2023-03-01T06:08:49;-3275.90;87.30
56478;DHT22;42382;53.210;5.772;2023-03-01T06:11:14;-3275.90;87.30
56478;DHT22;42382;53.210;5.772;2023-03-01T06:13:41;-3275.80;87.40
56478;DHT22;42382;53.210;5.772;2023-03-01T06:16:06;-3275.70;87.50
56478;DHT22;42382;53.210;5.772;2023-03-01T06:18:32;-3275.70;87.50
56478;DHT22;42382;53.210;5.772;2023-03-01T06:20:58;-3275.70;87.60
56478;DHT22;42382;53.210;5.772;2023-03-01T06:23:23;-3275.60;87.60
56478;DHT22;42382;53.210;5.772;2023-03-01T06:25:49;-3275.60;87.70
56478;DHT22;42382;53.210;5.772;2023-03-01T06:28:15;-3275.60;87.80
56478;DHT22;42382;53.210;5.772;2023-03-01T06:30:40;-3275.50;87.70
56478;DHT22;42382;53.210;5.772;2023-03-01T06:33:06;-3275.50;87.80
56478;DHT22;42382;53.210;5.772;2023-03-01T06:35:31;-3275.50;87.60
56478;DHT22;42382;53.210;5.772;2023-03-01T06:37:57;-3275.40;87.70
56478;DHT22;42382;53.210;5.772;2023-03-01T06:40:23;-3275.40;87.70
56478;DHT22;42382;53.210;5.772;2023-03-01T06:42:49;-3275.30;87.90
56478;DHT22;42382;53.210;5.772;2023-03-01T06:45:15;-3275.40;87.90
56478;DHT22;42382;53.210;5.772;2023-03-01T06:47:41;-3275.50;88.00
56478;DHT22;42382;53.210;5.772;2023-03-01T06:50:06;-3275.50;87.90
56478;DHT22;42382;53.210;5.772;2023-03-01T06:52:32;-3275.50;88.10
56478;DHT22;42382;53.210;5.772;2023-03-01T06:54:57;-3275.50;88.10
56478;DHT22;42382;53.210;5.772;2023-03-01T06:57:23;-3275.50;88.20
56478;DHT22;42382;53.210;5.772;2023-03-01T06:59:48;-3275.60;88.10
56478;DHT22;42382;53.210;5.772;2023-03-01T07:02:14;-3275.60;88.10
56478;DHT22;42382;53.210;5.772;2023-03-01T07:04:40;-3275.50;87.90
56478;DHT22;42382;53.210;5.772;2023-03-01T07:07:06;-3275.60;88.00
56478;DHT22;42382;53.210;5.772;2023-03-01T07:09:31;-3275.60;88.00
56478;DHT22;42382;53.210;5.772;2023-03-01T07:11:57;-3275.60;87.90
56478;DHT22;42382;53.210;5.772;2023-03-01T07:14:22;-3275.60;87.90
56478;DHT22;42382;53.210;5.772;2023-03-01T07:16:51;-3275.60;88.00
56478;DHT22;42382;53.210;5.772;2023-03-01T07:19:16;-3275.70;88.00
56478;DHT22;42382;53.210;5.772;2023-03-01T07:21:42;-3275.70;88.00
56478;DHT22;42382;53.210;5.772;2023-03-01T07:24:07;-3275.70;87.90
56478;DHT22;42382;53.210;5.772;2023-03-01T07:26:33;-3275.70;87.90
56478;DHT22;42382;53.210;5.772;2023-03-01T07:28:59;-3275.70;88.00
56478;DHT22;42382;53.210;5.772;2023-03-01T07:31:25;-3275.80;88.00
56478;DHT22;42382;53.210;5.772;2023-03-01T07:33:53;-3275.90;88.00
56478;DHT22;42382;53.210;5.772;2023-03-01T07:36:18;-3275.90;88.00
56478;DHT22;42382;53.210;5.772;2023-03-01T07:38:44;-3275.90;88.00
56478;DHT22;42382;53.210;5.772;2023-03-01T07:41:09;-3276.00;88.00
56478;DHT22;42382;53.210;5.772;2023-03-01T07:43:35;-3276.10;87.90
56478;DHT22;42382;53.210;5.772;2023-03-01T07:46:01;-3276.10;87.90
56478;DHT22;42382;53.210;5.772;2023-03-01T07:48:27;-3276.20;88.00
56478;DHT22;42382;53.210;5.772;2023-03-01T07:50:53;-3276.30;88.00
56478;DHT22;42382;53.210;5.772;2023-03-01T07:53:18;-3276.30;88.00
56478;DHT22;42382;53.210;5.772;2023-03-01T07:55:44;-3276.40;88.10
56478;DHT22;42382;53.210;5.772;2023-03-01T07:58:09;-3276.50;88.10
56478;DHT22;42382;53.210;5.772;2023-03-01T08:00:35;-3276.60;88.10
56478;DHT22;42382;53.210;5.772;2023-03-01T08:03:01;-3276.70;88.10
56478;DHT22;42382;53.210;5.772;2023-03-01T08:05:27;-3276.70;88.10
56478;DHT22;42382;53.210;5.772;2023-03-01T08:07:52;0.00;88.10
56478;DHT22;42382;53.210;5.772;2023-03-01T08:10:19;0.00;88.10
56478;DHT22;42382;53.210;5.772;2023-03-01T08:12:45;0.10;88.20
56478;DHT22;42382;53.210;5.772;2023-03-01T08:15:10;0.20;88.20
56478;DHT22;42382;53.210;5.772;2023-03-01T08:17:36;0.30;88.20
56478;DHT22;42382;53.210;5.772;2023-03-01T08:20:02;0.40;88.20
56478;DHT22;42382;53.210;5.772;2023-03-01T08:22:29;0.50;88.20
56478;DHT22;42382;53.210;5.772;2023-03-01T08:24:55;0.60;88.20
56478;DHT22;42382;53.210;5.772;2023-03-01T08:27:21;0.60;88.10
56478;DHT22;42382;53.210;5.772;2023-03-01T08:29:47;0.70;88.20
56478;DHT22;42382;53.210;5.772;2023-03-01T08:32:12;0.80;88.20
56478;DHT22;42382;53.210;5.772;2023-03-01T08:34:38;0.90;88.10
56478;DHT22;42382;53.210;5.772;2023-03-01T08:37:04;1.00;88.10
56478;DHT22;42382;53.210;5.772;2023-03-01T08:39:29;1.00;88.10
56478;DHT22;42382;53.210;5.772;2023-03-01T08:41:55;1.10;88.00
56478;DHT22;42382;53.210;5.772;2023-03-01T08:44:20;1.20;88.00
56478;DHT22;42382;53.210;5.772;2023-03-01T08:46:47;1.10;88.00
56478;DHT22;42382;53.210;5.772;2023-03-01T08:49:14;1.20;87.90
56478;DHT22;42382;53.210;5.772;2023-03-01T08:51:40;1.30;88.00
56478;DHT22;42382;53.210;5.772;2023-03-01T08:54:06;1.40;88.00
56478;DHT22;42382;53.210;5.772;2023-03-01T08:56:32;1.40;87.90
56478;DHT22;42382;53.210;5.772;2023-03-01T08:58:58;1.40;87.80
56478;DHT22;42382;53.210;5.772;2023-03-01T09:01:23;1.50;87.90
56478;DHT22;42382;53.210;5.772;2023-03-01T09:03:49;1.50;87.80
56478;DHT22;42382;53.210;5.772;2023-03-01T09:06:15;1.60;87.90
56478;DHT22;42382;53.210;5.772;2023-03-01T09:08:43;1.60;87.80
56478;DHT22;42382;53.210;5.772;2023-03-01T09:11:12;1.70;87.60
56478;DHT22;42382;53.210;5.772;2023-03-01T09:13:37;2.10;88.20
56478;DHT22;42382;53.210;5.772;2023-03-01T09:16:05;3.50;88.40
56478;DHT22;42382;53.210;5.772;2023-03-01T09:18:32;5.10;87.60
56478;DHT22;42382;53.210;5.772;2023-03-01T09:21:14;6.40;85.80
56478;DHT22;42382;53.210;5.772;2023-03-01T09:23:42;7.60;83.80
56478;DHT22;42382;53.210;5.772;2023-03-01T09:26:14;8.70;81.60
56478;DHT22;42382;53.210;5.772;2023-03-01T09:28:42;9.50;78.00
56478;DHT22;42382;53.210;5.772;2023-03-01T09:31:08;10.30;77.30
56478;DHT22;42382;53.210;5.772;2023-03-01T09:33:33;10.90;74.10
56478;DHT22;42382;53.210;5.772;2023-03-01T09:36:01;11.50;70.50
56478;DHT22;42382;53.210;5.772;2023-03-01T09:38:27;12.10;69.00
56478;DHT22;42382;53.210;5.772;2023-03-01T09:40:53;12.60;68.70
56478;DHT22;42382;53.210;5.772;2023-03-01T09:43:46;12.80;67.00
56478;DHT22;42382;53.210;5.772;2023-03-01T09:46:14;12.80;66.50
56478;DHT22;42382;53.210;5.772;2023-03-01T09:48:46;13.10;64.20
56478;DHT22;42382;53.210;5.772;2023-03-01T09:51:18;13.60;62.40
56478;DHT22;42382;53.210;5.772;2023-03-01T09:53:45;13.90;61.60
56478;DHT22;42382;53.210;5.772;2023-03-01T09:57:11;14.10;58.70
56478;DHT22;42382;53.210;5.772;2023-03-01T10:02:14;14.60;56.30
56478;DHT22;42382;53.210;5.772;2023-03-01T10:04:50;14.90;53.50
56478;DHT22;42382;53.210;5.772;2023-03-01T10:07:45;15.30;53.30
56478;DHT22;42382;53.210;5.772;2023-03-01T10:10:26;15.60;51.10
56478;DHT22;42382;53.210;5.772;2023-03-01T10:12:53;15.70;50.90
56478;DHT22;42382;53.210;5.772;2023-03-01T10:15:51;15.80;50.10
56478;DHT22;42382;53.210;5.772;2023-03-01T10:18:22;15.80;47.10
56478;DHT22;42382;53.210;5.772;2023-03-01T10:20:56;16.00;48.30
56478;DHT22;42382;53.210;5.772;2023-03-01T10:23:24;16.10;47.70
56478;DHT22;42382;53.210;5.772;2023-03-01T10:31:12;16.50;46.20
56478;DHT22;42382;53.210;5.772;2023-03-01T10:33:39;16.60;45.20
56478;DHT22;42382;53.210;5.772;2023-03-01T10:36:06;16.50;46.00
56478;DHT22;42382;53.210;5.772;2023-03-01T10:38:51;16.40;45.80
56478;DHT22;42382;53.210;5.772;2023-03-01T10:41:20;16.60;45.40
56478;DHT22;42382;53.210;5.772;2023-03-01T10:43:55;16.80;45.60
56478;DHT22;42382;53.210;5.772;2023-03-01T10:46:29;16.80;44.90
56478;DHT22;42382;53.210;5.772;2023-03-01T10:51:41;16.90;42.50
56478;DHT22;42382;53.210;5.772;2023-03-01T10:54:17;16.90;43.90
56478;DHT22;42382;53.210;5.772;2023-03-01T10:57:10;17.00;43.10
56478;DHT22;42382;53.210;5.772;2023-03-01T10:59:38;17.10;42.80
56478;DHT22;42382;53.210;5.772;2023-03-01T11:02:28;16.70;42.40
56478;DHT22;42382;53.210;5.772;2023-03-01T11:05:16;16.60;42.50
56478;DHT22;42382;53.210;5.772;2023-03-01T11:07:50;16.80;42.60
56478;DHT22;42382;53.210;5.772;2023-03-01T11:10:18;16.70;43.10
56478;DHT22;42382;53.210;5.772;2023-03-01T11:12:44;16.80;42.60
56478;DHT22;42382;53.210;5.772;2023-03-01T11:15:21;16.70;42.90
56478;DHT22;42382;53.210;5.772;2023-03-01T11:17:48;16.80;42.10
56478;DHT22;42382;53.210;5.772;2023-03-01T11:22:49;16.80;42.40
56478;DHT22;42382;53.210;5.772;2023-03-01T11:25:17;17.00;41.50
56478;DHT22;42382;53.210;5.772;2023-03-01T11:27:48;16.80;41.70
56478;DHT22;42382;53.210;5.772;2023-03-01T11:33:12;16.80;41.30
56478;DHT22;42382;53.210;5.772;2023-03-01T11:35:55;16.90;41.80
56478;DHT22;42382;53.210;5.772;2023-03-01T11:38:26;16.90;40.60
56478;DHT22;42382;53.210;5.772;2023-03-01T11:52:18;16.80;39.80
56478;DHT22;42382;53.210;5.772;2023-03-01T11:55:09;16.70;38.00
56478;DHT22;42382;53.210;5.772;2023-03-01T11:57:51;16.50;39.80
56478;DHT22;42382;53.210;5.772;2023-03-01T12:26:29;10.40;51.50
56478;DHT22;42382;53.210;5.772;2023-03-01T12:32:11;10.10;55.10
56478;DHT22;42382;53.210;5.772;2023-03-01T12:37:54;9.70;54.90
56478;DHT22;42382;53.210;5.772;2023-03-01T12:46:36;9.40;57.10
56478;DHT22;42382;53.210;5.772;2023-03-01T12:51:34;9.40;57.90
56478;DHT22;42382;53.210;5.772;2023-03-01T12:54:07;9.40;57.80
56478;DHT22;42382;53.210;5.772;2023-03-01T12:56:36;9.30;57.80
56478;DHT22;42382;53.210;5.772;2023-03-01T13:01:42;9.40;59.00
56478;DHT22;42382;53.210;5.772;2023-03-01T13:07:01;9.40;59.10
56478;DHT22;42382;53.210;5.772;2023-03-01T13:12:41;9.40;59.40
56478;DHT22;42382;53.210;5.772;2023-03-01T13:15:24;9.40;58.20
56478;DHT22;42382;53.210;5.772;2023-03-01T13:17:53;9.40;59.00
56478;DHT22;42382;53.210;5.772;2023-03-01T13:20:20;9.40;59.80
56478;DHT22;42382;53.210;5.772;2023-03-01T13:22:46;9.40;57.90
56478;DHT22;42382;53.210;5.772;2023-03-01T13:25:17;9.30;58.80
56478;DHT22;42382;53.210;5.772;2023-03-01T13:27:43;9.40;58.50
56478;DHT22;42382;53.210;5.772;2023-03-01T13:32:56;9.40;58.90
56478;DHT22;42382;53.210;5.772;2023-03-01T13:35:43;9.40;59.80
56478;DHT22;42382;53.210;5.772;2023-03-01T13:43:29;9.40;60.60
56478;DHT22;42382;53.210;5.772;2023-03-01T13:45:55;9.50;60.70
56478;DHT22;42382;53.210;5.772;2023-03-01T13:48:24;9.50;60.50
56478;DHT22;42382;53.210;5.772;2023-03-01T13:50:51;9.50;59.70
56478;DHT22;42382;53.210;5.772;2023-03-01T13:53:18;9.50;59.90
56478;DHT22;42382;53.210;5.772;2023-03-01T13:55:45;9.50;60.70
56478;DHT22;42382;53.210;5.772;2023-03-01T14:00:46;9.50;59.00
56478;DHT22;42382;53.210;5.772;2023-03-01T14:03:16;9.50;60.40
56478;DHT22;42382;53.210;5.772;2023-03-01T14:05:43;9.50;59.60
56478;DHT22;42382;53.210;5.772;2023-03-01T14:08:22;9.40;57.60
56478;DHT22;42382;53.210;5.772;2023-03-01T14:11:09;9.40;58.00
56478;DHT22;42382;53.210;5.772;2023-03-01T14:16:19;9.40;59.80
56478;DHT22;42382;53.210;5.772;2023-03-01T14:21:17;9.50;59.30
56478;DHT22;42382;53.210;5.772;2023-03-01T14:23:43;9.50;59.80
56478;DHT22;42382;53.210;5.772;2023-03-01T14:26:08;9.40;58.70
56478;DHT22;42382;53.210;5.772;2023-03-01T14:28:34;9.40;57.90
56478;DHT22;42382;53.210;5.772;2023-03-01T14:31:03;9.40;58.80
56478;DHT22;42382;53.210;5.772;2023-03-01T14:36:01;9.40;59.30
56478;DHT22;42382;53.210;5.772;2023-03-01T14:41:12;9.30;57.90
56478;DHT22;42382;53.210;5.772;2023-03-01T14:43:41;9.40;59.40
56478;DHT22;42382;53.210;5.772;2023-03-01T14:46:22;9.40;58.50
56478;DHT22;42382;53.210;5.772;2023-03-01T14:48:53;9.40;58.50
56478;DHT22;42382;53.210;5.772;2023-03-01T14:51:19;9.30;58.70
56478;DHT22;42382;53.210;5.772;2023-03-01T14:53:45;9.30;58.90
56478;DHT22;42382;53.210;5.772;2023-03-01T14:56:14;9.30;59.30
56478;DHT22;42382;53.210;5.772;2023-03-01T14:58:40;9.30;59.40
56478;DHT22;42382;53.210;5.772;2023-03-01T15:01:05;9.20;59.10
56478;DHT22;42382;53.210;5.772;2023-03-01T15:03:34;9.20;60.70
56478;DHT22;42382;53.210;5.772;2023-03-01T15:06:01;9.10;58.90
56478;DHT22;42382;53.210;5.772;2023-03-01T15:08:27;9.10;59.00
56478;DHT22;42382;53.210;5.772;2023-03-01T15:13:38;9.10;60.10
56478;DHT22;42382;53.210;5.772;2023-03-01T15:16:08;9.40;60.30
56478;DHT22;42382;53.210;5.772;2023-03-01T15:18:34;9.60;59.00
56478;DHT22;42382;53.210;5.772;2023-03-01T15:21:14;9.70;58.10
56478;DHT22;42382;53.210;5.772;2023-03-01T15:23:40;9.80;57.60
56478;DHT22;42382;53.210;5.772;2023-03-01T15:26:06;9.80;58.70
56478;DHT22;42382;53.210;5.772;2023-03-01T15:28:43;9.70;57.60
56478;DHT22;42382;53.210;5.772;2023-03-01T15:33:46;9.60;58.80
56478;DHT22;42382;53.210;5.772;2023-03-01T15:36:35;9.50;58.90
56478;DHT22;42382;53.210;5.772;2023-03-01T15:39:02;9.40;57.90
56478;DHT22;42382;53.210;5.772;2023-03-01T15:41:32;9.30;58.30
56478;DHT22;42382;53.210;5.772;2023-03-01T15:43:59;9.20;58.40
56478;DHT22;42382;53.210;5.772;2023-03-01T15:46:29;9.00;57.60
56478;DHT22;42382;53.210;5.772;2023-03-01T15:48:57;8.90;58.20
56478;DHT22;42382;53.210;5.772;2023-03-01T15:51:26;8.80;59.30
56478;DHT22;42382;53.210;5.772;2023-03-01T15:53:53;8.80;60.10
56478;DHT22;42382;53.210;5.772;2023-03-01T15:56:19;8.80;59.70
56478;DHT22;42382;53.210;5.772;2023-03-01T15:58:44;8.70;59.10
56478;DHT22;42382;53.210;5.772;2023-03-01T16:01:13;8.60;60.00
56478;DHT22;42382;53.210;5.772;2023-03-01T16:03:39;8.60;60.60
56478;DHT22;42382;53.210;5.772;2023-03-01T16:06:05;8.50;61.70
56478;DHT22;42382;53.210;5.772;2023-03-01T16:08:30;8.50;61.40
56478;DHT22;42382;53.210;5.772;2023-03-01T16:10:56;8.50;61.90
56478;DHT22;42382;53.210;5.772;2023-03-01T16:13:22;8.40;62.00
56478;DHT22;42382;53.210;5.772;2023-03-01T16:15:47;8.30;62.80
56478;DHT22;42382;53.210;5.772;2023-03-01T16:18:13;8.30;63.40
56478;DHT22;42382;53.210;5.772;2023-03-01T16:20:39;8.30;63.80
56478;DHT22;42382;53.210;5.772;2023-03-01T16:23:05;8.10;64.40
56478;DHT22;42382;53.210;5.772;2023-03-01T16:25:31;8.00;64.90
56478;DHT22;42382;53.210;5.772;2023-03-01T16:27:57;7.90;66.20
56478;DHT22;42382;53.210;5.772;2023-03-01T16:30:25;7.80;67.30
56478;DHT22;42382;53.210;5.772;2023-03-01T16:32:51;7.70;68.70
56478;DHT22;42382;53.210;5.772;2023-03-01T16:35:17;7.60;69.40
56478;DHT22;42382;53.210;5.772;2023-03-01T16:37:43;7.50;69.80
56478;DHT22;42382;53.210;5.772;2023-03-01T16:40:27;7.40;70.60
56478;DHT22;42382;53.210;5.772;2023-03-01T16:42:54;7.30;71.30
56478;DHT22;42382;53.210;5.772;2023-03-01T16:45:22;7.20;71.80
56478;DHT22;42382;53.210;5.772;2023-03-01T16:47:47;7.20;72.90
56478;DHT22;42382;53.210;5.772;2023-03-01T16:50:13;7.10;73.80
56478;DHT22;42382;53.210;5.772;2023-03-01T16:52:38;7.00;73.90
56478;DHT22;42382;53.210;5.772;2023-03-01T16:55:04;6.90;74.30
56478;DHT22;42382;53.210;5.772;2023-03-01T16:57:30;6.80;75.00
56478;DHT22;42382;53.210;5.772;2023-03-01T16:59:56;6.70;75.30
56478;DHT22;42382;53.210;5.772;2023-03-01T17:02:22;6.70;75.50
56478;DHT22;42382;53.210;5.772;2023-03-01T17:04:51;6.60;76.10
56478;DHT22;42382;53.210;5.772;2023-03-01T17:07:16;6.60;76.20
56478;DHT22;42382;53.210;5.772;2023-03-01T17:09:42;6.40;76.90
56478;DHT22;42382;53.210;5.772;2023-03-01T17:12:07;6.40;77.00
56478;DHT22;42382;53.210;5.772;2023-03-01T17:14:33;6.30;77.50
56478;DHT22;42382;53.210;5.772;2023-03-01T17:16:59;6.20;77.50
56478;DHT22;42382;53.210;5.772;2023-03-01T17:19:27;6.20;78.50
56478;DHT22;42382;53.210;5.772;2023-03-01T17:21:53;6.10;78.50
56478;DHT22;42382;53.210;5.772;2023-03-01T17:24:19;6.10;78.90
56478;DHT22;42382;53.210;5.772;2023-03-01T17:26:44;6.00;78.90
56478;DHT22;42382;53.210;5.772;2023-03-01T17:29:10;5.90;79.40
56478;DHT22;42382;53.210;5.772;2023-03-01T17:31:37;5.90;79.20
56478;DHT22;42382;53.210;5.772;2023-03-01T17:34:02;5.80;79.90